createdAt,value
2019-03-06T00:04:48.505Z,1.03
2019-03-06T00:09:52.054Z,1.00
2019-03-06T00:14:55.711Z,0.90
2019-03-06T00:19:59.012Z,1.27
2019-03-06T00:25:02.313Z,1.20
2019-03-06T00:30:13.617Z,1.30
2019-03-06T00:35:33.957Z,1.07
2019-03-06T00:40:50.596Z,1.30
2019-03-06T00:45:54.129Z,1.50
2019-03-06T00:50:57.657Z,1.40
2019-03-06T00:56:00.958Z,1.20
2019-03-06T01:01:04.417Z,1.73
2019-03-06T01:06:07.704Z,1.50
2019-03-06T01:11:11.254Z,1.50
2019-03-06T01:16:14.659Z,1.63
2019-03-06T01:21:18.188Z,1.87
2019-03-06T01:26:21.730Z,1.83
2019-03-06T01:31:25.258Z,1.83
2019-03-06T01:36:33.090Z,2.40
2019-03-06T01:41:43.951Z,1.87
2019-03-06T01:46:47.492Z,2.23
2019-03-06T01:51:50.782Z,2.70
2019-03-06T01:56:54.070Z,3.07
2019-03-06T02:01:57.362Z,3.30
2019-03-06T02:07:00.768Z,3.77
2019-03-06T02:12:04.217Z,4.33
2019-03-06T02:17:07.749Z,3.83
2019-03-06T02:22:11.064Z,4.57
2019-03-06T02:27:14.618Z,4.90
2019-03-06T02:32:18.162Z,4.87
2019-03-06T02:37:21.443Z,5.93
2019-03-06T02:42:24.730Z,4.87
2019-03-06T02:47:27.992Z,5.27
2019-03-06T02:52:31.279Z,5.33
2019-03-06T02:57:34.554Z,5.70
2019-03-06T03:02:39.464Z,5.93
2019-03-06T03:07:42.825Z,5.37
2019-03-06T03:12:46.126Z,6.53
2019-03-06T03:17:51.529Z,6.10
2019-03-06T03:22:54.805Z,6.33
2019-03-06T03:27:58.092Z,6.20
2019-03-06T03:33:01.374Z,5.50
2019-03-06T03:38:04.648Z,6.20
2019-03-06T03:43:08.205Z,6.83
2019-03-06T03:48:11.501Z,7.40
2019-03-06T03:53:15.072Z,6.20
2019-03-06T03:58:18.421Z,6.97
2019-03-06T04:03:21.694Z,6.67
2019-03-06T04:08:25.229Z,6.20
2019-03-06T04:13:28.514Z,5.70
2019-03-06T04:18:32.041Z,6.60
2019-03-06T04:23:35.854Z,6.80
2019-03-06T04:28:39.459Z,6.70
2019-03-06T04:33:42.982Z,6.67
2019-03-06T04:38:46.290Z,6.40
2019-03-06T04:43:49.577Z,6.00
2019-03-06T04:48:53.052Z,6.17
2019-03-06T04:53:56.578Z,6.17
2019-03-06T04:59:00.127Z,7.00
2019-03-06T05:04:03.417Z,5.87
2019-03-06T05:09:07.580Z,6.43
2019-03-06T05:14:11.133Z,5.13
2019-03-06T05:19:14.656Z,5.00
2019-03-06T05:24:18.006Z,5.73
2019-03-06T05:29:21.550Z,5.43
2019-03-06T05:34:25.558Z,5.43
2019-03-06T05:39:29.093Z,5.20
2019-03-06T05:44:32.392Z,4.80
2019-03-06T05:49:36.018Z,4.63
2019-03-06T05:54:39.293Z,4.97
2019-03-06T05:59:42.585Z,4.07
2019-03-06T06:04:45.873Z,4.53
2019-03-06T06:09:49.176Z,4.73
2019-03-06T06:14:52.487Z,4.30
2019-03-06T06:19:55.935Z,4.53
2019-03-06T06:25:02.382Z,4.10
2019-03-06T06:30:11.100Z,3.73
2019-03-06T06:35:14.402Z,4.40
2019-03-06T06:40:17.971Z,4.33
2019-03-06T06:45:21.593Z,4.27
2019-03-06T06:50:25.161Z,4.47
2019-03-06T06:55:31.869Z,4.40
2019-03-06T07:01:08.208Z,4.57
2019-03-06T07:06:19.230Z,4.60
2019-03-06T07:11:36.445Z,5.27
2019-03-06T07:16:41.476Z,15.90
2019-03-06T07:21:55.483Z,5.37
2019-03-06T07:27:22.278Z,4.10
2019-03-06T07:32:27.215Z,4.90
2019-03-06T07:37:41.546Z,3.83
2019-03-06T07:42:46.737Z,7.03
2019-03-06T07:47:51.671Z,4.40
2019-03-06T07:53:31.392Z,6.17
2019-03-06T07:58:55.210Z,3.23
2019-03-06T08:04:02.051Z,3.27
2019-03-06T08:09:08.666Z,3.07
2019-03-06T08:14:22.607Z,2.00
2019-03-06T08:19:43.880Z,2.37
2019-03-06T08:25:05.090Z,1.30
2019-03-06T08:30:10.541Z,1.20
2019-03-06T08:35:13.918Z,1.33
2019-03-06T08:40:17.229Z,0.87
2019-03-06T08:45:22.424Z,0.70
2019-03-06T08:50:30.062Z,0.93
2019-03-06T08:55:34.983Z,0.73
2019-03-06T09:00:55.863Z,1.03
2019-03-06T09:06:17.222Z,0.37
2019-03-06T09:11:25.007Z,0.50
2019-03-06T09:16:30.188Z,0.50
2019-03-06T09:21:44.403Z,0.50
2019-03-06T09:27:07.803Z,0.70
2019-03-06T09:32:15.991Z,0.90
2019-03-06T09:37:23.566Z,1.10
2019-03-06T09:42:34.414Z,0.80
2019-03-06T09:47:39.615Z,0.90
2019-03-06T09:52:44.542Z,1.00
2019-03-06T09:58:01.742Z,0.93
2019-03-06T10:03:12.936Z,0.90
2019-03-06T10:08:35.848Z,1.20
2019-03-06T10:13:43.511Z,0.80
2019-03-06T10:18:48.683Z,0.97
2019-03-06T10:23:52.254Z,0.70
2019-03-06T10:28:55.802Z,0.77
2019-03-06T10:33:59.341Z,1.20
2019-03-06T10:39:05.057Z,1.20
2019-03-06T10:44:08.730Z,1.33
2019-03-06T10:49:12.029Z,1.10
2019-03-06T10:54:15.559Z,0.83
2019-03-06T10:59:18.837Z,0.70
2019-03-06T11:04:42.719Z,1.37
2019-03-06T11:09:46.335Z,0.87
2019-03-06T11:14:49.619Z,0.73
2019-03-06T11:19:54.952Z,1.23
2019-03-06T11:24:59.781Z,0.90
2019-03-06T11:30:04.459Z,0.77
2019-03-06T11:35:10.910Z,1.10
2019-03-06T11:40:16.508Z,0.70
2019-03-06T11:45:20.242Z,1.77
2019-03-06T11:50:23.940Z,0.63
2019-03-06T11:55:27.297Z,2.53
2019-03-06T12:00:34.745Z,0.83
2019-03-06T12:05:38.695Z,0.60
2019-03-06T12:10:42.223Z,0.57
2019-03-06T12:15:48.937Z,0.80
2019-03-06T12:20:52.844Z,0.80
2019-03-06T12:25:56.209Z,1.60
2019-03-06T12:30:59.764Z,1.03
2019-03-06T12:36:03.048Z,0.97
2019-03-06T12:41:06.505Z,0.63
2019-03-06T12:46:22.987Z,0.67
2019-03-06T12:51:20.378Z,0.53
2019-03-06T12:56:23.944Z,0.40
2019-03-06T13:01:27.636Z,0.70
2019-03-06T13:06:31.015Z,0.57
2019-03-06T13:11:34.389Z,0.43
2019-03-06T13:16:37.944Z,0.67
2019-03-06T13:21:42.408Z,0.53
2019-03-06T13:26:45.831Z,0.50
2019-03-06T13:31:49.456Z,0.70
2019-03-06T13:36:52.989Z,0.50
2019-03-06T13:41:56.630Z,0.60
2019-03-06T13:46:59.932Z,0.57
2019-03-06T13:52:03.852Z,0.57
2019-03-06T13:57:07.630Z,0.40
2019-03-06T14:02:11.029Z,0.37
2019-03-06T14:07:14.328Z,0.67
2019-03-06T14:12:17.884Z,0.30
2019-03-06T14:17:22.365Z,0.73
2019-03-06T14:22:25.656Z,0.47
2019-03-06T14:27:28.947Z,0.60
2019-03-06T14:32:32.513Z,0.60
2019-03-06T14:37:36.011Z,0.60
2019-03-06T14:42:39.548Z,0.50
2019-03-06T14:47:43.180Z,0.77
2019-03-06T14:52:47.429Z,1.00
2019-03-06T14:57:51.375Z,0.70
2019-03-06T15:02:54.990Z,0.53
2019-03-06T15:07:58.303Z,0.50
2019-03-06T15:13:01.936Z,0.67
2019-03-06T15:18:10.640Z,0.90
2019-03-06T15:23:10.364Z,0.60
2019-03-06T15:28:13.630Z,0.60
2019-03-06T15:33:17.010Z,0.80
2019-03-06T15:38:20.315Z,0.70
2019-03-06T15:43:24.520Z,0.83
2019-03-06T15:48:28.086Z,1.33
2019-03-06T15:53:31.389Z,1.17
2019-03-06T15:58:34.754Z,0.87
2019-03-06T16:03:38.051Z,0.60
2019-03-06T16:08:49.254Z,0.80
2019-03-06T16:13:52.582Z,0.60
2019-03-06T16:18:56.170Z,0.93
2019-03-06T16:23:59.551Z,0.60
2019-03-06T16:29:03.131Z,0.73
2019-03-06T16:34:07.288Z,0.90
2019-03-06T16:39:10.670Z,0.93
2019-03-06T16:44:15.823Z,0.70
2019-03-06T16:49:19.515Z,1.60
2019-03-06T16:54:23.208Z,1.30
2019-03-06T16:59:26.495Z,1.17
2019-03-06T17:04:30.069Z,0.93
2019-03-06T17:09:33.438Z,0.93
2019-03-06T17:14:37.016Z,0.80
2019-03-06T17:19:40.574Z,1.03
2019-03-06T17:24:44.175Z,1.00
2019-03-06T17:29:47.474Z,1.33
2019-03-06T17:34:53.487Z,1.13
2019-03-06T17:39:56.908Z,0.80
2019-03-06T17:45:00.330Z,0.90
2019-03-06T17:50:04.155Z,0.90
2019-03-06T17:55:08.984Z,1.10
2019-03-06T18:00:17.171Z,1.30
2019-03-06T18:05:20.894Z,1.03
2019-03-06T18:10:24.226Z,0.80
2019-03-06T18:15:27.809Z,1.20
2019-03-06T18:20:31.349Z,1.20
2019-03-06T18:25:34.891Z,1.03
2019-03-06T18:30:38.560Z,1.20
2019-03-06T18:35:41.852Z,1.00
2019-03-06T18:40:45.153Z,1.00
2019-03-06T18:45:48.438Z,1.27
2019-03-06T18:50:51.977Z,1.70
2019-03-06T18:55:55.699Z,1.30
2019-03-06T19:00:59.210Z,1.53
2019-03-06T19:06:02.495Z,1.63
2019-03-06T19:11:05.854Z,1.87
2019-03-06T19:16:09.144Z,1.60
2019-03-06T19:21:12.608Z,1.60
2019-03-06T19:26:15.887Z,1.83
2019-03-06T19:31:19.168Z,1.93
2019-03-06T19:36:22.451Z,1.57
2019-03-06T19:41:25.981Z,1.77
2019-03-06T19:46:29.594Z,1.67
2019-03-06T19:51:32.885Z,1.97
2019-03-06T19:56:36.423Z,1.83
2019-03-06T20:01:39.873Z,2.03
2019-03-06T20:06:43.151Z,1.93
2019-03-06T20:11:46.441Z,2.03
2019-03-06T20:16:49.731Z,2.17
2019-03-06T20:21:53.013Z,2.67
2019-03-06T20:26:56.640Z,2.17
2019-03-06T20:32:00.422Z,2.00
2019-03-06T20:37:04.210Z,2.37
2019-03-06T20:42:07.764Z,1.80
2019-03-06T20:47:11.043Z,2.50
2019-03-06T20:52:14.576Z,1.80
2019-03-06T20:57:17.856Z,2.20
2019-03-06T21:02:21.326Z,1.80
2019-03-06T21:07:24.595Z,2.57
2019-03-06T21:12:28.199Z,2.47
2019-03-06T21:17:31.746Z,1.93
2019-03-06T21:22:35.031Z,2.00
2019-03-06T21:27:38.307Z,2.40
2019-03-06T21:32:42.325Z,1.90
2019-03-06T21:37:45.911Z,2.90
2019-03-06T21:42:49.451Z,2.00
2019-03-06T21:47:52.737Z,2.10
2019-03-06T21:52:57.593Z,2.20
2019-03-06T21:58:01.218Z,2.27
2019-03-06T22:03:05.086Z,2.10
2019-03-06T22:08:08.362Z,2.50
2019-03-06T22:13:11.641Z,2.00
2019-03-06T22:18:14.924Z,2.33
2019-03-06T22:23:19.307Z,2.13
2019-03-06T22:28:22.700Z,2.43
2019-03-06T22:33:25.993Z,2.37
2019-03-06T22:38:29.527Z,2.27
2019-03-06T22:43:32.813Z,1.83
2019-03-06T22:48:37.074Z,2.00
2019-03-06T22:53:43.061Z,2.40
2019-03-06T22:58:46.441Z,2.17
2019-03-06T23:03:49.754Z,2.27
2019-03-06T23:08:53.298Z,3.13
2019-03-06T23:13:56.832Z,1.93
2019-03-06T23:19:00.234Z,2.70
2019-03-06T23:24:03.773Z,2.10
2019-03-06T23:29:07.325Z,2.10
2019-03-06T23:34:10.906Z,1.83
2019-03-06T23:39:14.462Z,1.77
2019-03-06T23:44:18.011Z,2.53
2019-03-06T23:49:21.535Z,2.13
2019-03-06T23:54:25.205Z,2.37
2019-03-06T23:59:28.908Z,1.87
